Terminal Aerodrome Forecast
Issued by NWS

Home | Current Version | Previous Version | Text Only | Print | Product List | Glossary On
Versions: 1 2 3 4 5 6 7 8 9 10 11 12
000
FTAK31 PAJN 281100
TAFAWG
TAF
PAWG 281135Z 2812/0112 VRB03KT P6SM SKC
     FM282100 32005KT P6SM SCT150
     FM010000 VRB04KT P6SM BKN040 BKN080
     FM010500 VRB03KT 6SM -RA BR SCT020 OVC040
     FM011000 VRB03KT 4SM -RA BR BKN020 OVC040
      AMD LTD TO CLD VIS AND WIND 2812/2815=

USA.gov is the U.S. government's official web portal to all federal, state and local government web resources and services.